Clayton, Oklahoma
Current Conditions -  °F | °C
As of 6:53 AM on Friday 19 Dec 2014 (Local Time) from KMLC Reporting Station
Overcast Overcast  
Wind Chill: 43°   Ceiling: 600
Heat Index: 43°   Visibility: 7mi
Dew Point: 40°   Wind: 0mph
Humidity: 89%   Direction: NA
Pressure: 30.23"   Gusts: NA
Location:  34.59°N, 95.35°W
Report Text: KMLC 191253Z AUTO 00000KT 7SM OVC006 06/04 A3023 RMK AO2 SLP239 T00610044
Loading
Personal Weather Stations






























Interactive Weather Map New forecast layout! Learn more

10-Day Weather Forecast

Advertisements
Track Severe Weather on mobile